Kezdőlap
METAR-TAF:

METAR-TAF

Repülőterek :

Trang, Thaiföld

földrajzi szélesség: 07-31N, földrajzi hosszúság: 099-37E, magasság: 14 m

Jelenlegi meteorológiai megfigyelések

A jelentés 6 órával és 57 perccel ezelõtt készült, 13:00 UTC
Déli szél 2 kt
Hőmérséklet 29°C
Páratartalom 55%
Légköri nyomás 1007 hPa
Látótávolság 10 km, vagy több
Kevés felhő 3000 lábon

METAR: VTST 151300Z 17002KT 9999 FEW030 29/19 Q1007 NOSIG

Idő: 02:57 (19:57 UTC)

Előrejelzés

A jelentés 2 órával és 57 perccel ezelõtt készült, 17:00 UTC
Az előrejelzés 15-én 18 óra UTC és 16-én 18 óra UTC között érvényes
Nyugat-délnyugati szél 5 kt
Látótávolság 10 km, vagy több
Szórványos felhőzet 3000 lábon

TAF: VTST 151700Z 1518/1618 24005KT 9999 SCT030

Meteorológiai megfigyelések és előrejelzések több, mint 4000 repülőtéren (METAR és TAF jelentéseket).

A térképen piros és sárga pontok jelzik az elérhető meteorológiai állomásokat.

Mozgassa az egeret a pont fölött, hogy megjelenjen az állomás neve.

Azután kattintson az időjárási megfigyelések és előrejelzések megtekintéséhez.

A térkép megváltoztatása: kattintson a fekete keresztel jelölt zöld gombra ráközelítéshez, a vonallal jelölt zöld gombra távolításhoz, vagy a zöld nyilakra a szomszédos térképek eléréséhez.


METAR-TAF: